createdAt,value
2019-05-05T00:00:14.269Z,89.66
2019-05-05T00:02:55.184Z,90.52
2019-05-05T00:05:35.370Z,90.39
2019-05-05T00:08:04.896Z,90.31
2019-05-05T00:10:50.081Z,89.68
2019-05-05T00:13:34.656Z,90.26
2019-05-05T00:16:27.601Z,90.04
2019-05-05T00:18:56.042Z,88.39
2019-05-05T00:21:24.393Z,88.72
2019-05-05T00:23:51.876Z,89.08
2019-05-05T00:26:19.206Z,89.46
2019-05-05T00:28:46.535Z,86.88
2019-05-05T00:31:15.001Z,88.26
2019-05-05T00:33:44.719Z,89.33
2019-05-05T00:36:11.913Z,89.41
2019-05-05T00:38:39.259Z,90.48
2019-05-05T00:41:06.611Z,89.55
2019-05-05T00:43:34.508Z,87.60
2019-05-05T00:46:08.026Z,88.62
2019-05-05T00:48:41.300Z,87.64
2019-05-05T00:51:08.672Z,88.77
2019-05-05T00:53:36.054Z,88.93
2019-05-05T00:56:05.114Z,87.91
2019-05-05T00:58:35.308Z,89.34
2019-05-05T01:01:11.707Z,87.49
2019-05-05T01:03:39.075Z,86.63
2019-05-05T01:06:17.706Z,89.32
2019-05-05T01:08:45.074Z,90.48
2019-05-05T01:11:14.628Z,91.09
2019-05-05T01:13:42.005Z,90.62
2019-05-05T01:16:09.328Z,90.03
2019-05-05T01:18:37.021Z,87.33
2019-05-05T01:21:04.651Z,83.92
2019-05-05T01:23:32.153Z,83.59
2019-05-05T01:25:59.935Z,85.65
2019-05-05T01:28:27.292Z,85.29
2019-05-05T01:30:58.801Z,87.42
2019-05-05T01:33:34.265Z,85.82
2019-05-05T01:36:01.476Z,85.59
2019-05-05T01:38:35.519Z,85.35
2019-05-05T01:41:15.544Z,86.02
2019-05-05T01:43:45.054Z,85.04
2019-05-05T01:46:14.193Z,86.15
2019-05-05T01:48:41.502Z,87.87
2019-05-05T01:51:09.002Z,87.64
2019-05-05T01:53:36.420Z,86.58
2019-05-05T01:56:04.858Z,85.95
2019-05-05T01:58:34.763Z,85.95
2019-05-05T02:01:01.872Z,83.27
2019-05-05T02:03:29.262Z,84.50
2019-05-05T02:05:56.743Z,85.94
2019-05-05T02:08:24.536Z,86.83
2019-05-05T02:10:52.154Z,86.22
2019-05-05T02:13:19.514Z,86.89
2019-05-05T02:15:46.873Z,87.30
2019-05-05T02:18:14.912Z,88.48
2019-05-05T02:20:54.347Z,88.43
2019-05-05T02:23:21.832Z,89.55
2019-05-05T02:25:49.312Z,88.70
2019-05-05T02:28:16.680Z,84.96
2019-05-05T02:30:55.055Z,85.70
2019-05-05T02:33:25.859Z,87.40
2019-05-05T02:35:55.405Z,87.23
2019-05-05T02:38:21.419Z,89.04
2019-05-05T02:40:49.333Z,88.51
2019-05-05T02:43:17.958Z,87.62
2019-05-05T02:45:55.405Z,87.98
2019-05-05T02:48:25.002Z,87.70
2019-05-05T02:51:01.750Z,86.84
2019-05-05T02:53:31.015Z,86.71
2019-05-05T02:56:04.030Z,86.73
2019-05-05T02:58:34.004Z,87.81
2019-05-05T03:01:25.895Z,88.03
2019-05-05T03:03:54.244Z,89.92
2019-05-05T03:06:23.796Z,90.11
2019-05-05T03:08:54.146Z,87.93
2019-05-05T03:11:23.612Z,88.75
2019-05-05T03:13:53.529Z,86.92
2019-05-05T03:16:23.642Z,87.46
2019-05-05T03:18:50.832Z,89.59
2019-05-05T03:21:18.694Z,89.94
2019-05-05T03:23:46.454Z,90.10
2019-05-05T03:26:14.154Z,89.78
2019-05-05T03:28:45.026Z,90.30
2019-05-05T03:31:15.998Z,90.08
2019-05-05T03:33:45.948Z,89.02
2019-05-05T03:36:14.021Z,88.21
2019-05-05T03:38:44.174Z,89.39
2019-05-05T03:41:19.191Z,88.09
2019-05-05T03:44:06.582Z,89.94
2019-05-05T03:46:35.273Z,90.51
2019-05-05T03:49:04.681Z,89.86
2019-05-05T03:51:34.358Z,89.64
2019-05-05T03:54:04.224Z,87.75
2019-05-05T03:56:31.705Z,86.89
2019-05-05T03:58:59.198Z,89.37
2019-05-05T04:01:34.601Z,90.01
2019-05-05T04:04:20.119Z,88.81
2019-05-05T04:06:49.081Z,89.60
2019-05-05T04:09:16.451Z,87.62
2019-05-05T04:11:44.389Z,89.79
2019-05-05T04:14:14.206Z,89.30
2019-05-05T04:16:48.404Z,89.59
2019-05-05T04:19:16.633Z,89.82
2019-05-05T04:21:44.892Z,90.70
2019-05-05T04:24:14.438Z,90.32
2019-05-05T04:26:41.678Z,90.11
2019-05-05T04:29:09.014Z,88.98
2019-05-05T04:31:36.395Z,89.49
2019-05-05T04:34:04.255Z,89.27
2019-05-05T04:36:33.894Z,89.75
2019-05-05T04:39:01.053Z,89.93
2019-05-05T04:41:28.425Z,91.13
2019-05-05T04:43:55.779Z,90.53
2019-05-05T04:46:24.563Z,89.86
2019-05-05T04:49:05.628Z,86.18
2019-05-05T04:51:47.674Z,87.05
2019-05-05T04:54:18.893Z,84.93
2019-05-05T04:56:46.253Z,88.55
2019-05-05T04:59:14.389Z,88.62
2019-05-05T05:01:43.926Z,88.68
2019-05-05T05:04:30.730Z,89.69
2019-05-05T05:06:58.535Z,89.12
2019-05-05T05:09:25.863Z,89.14
2019-05-05T05:11:54.692Z,89.08
2019-05-05T05:14:24.567Z,88.80
2019-05-05T05:16:54.170Z,89.27
2019-05-05T05:19:21.592Z,88.18
2019-05-05T05:21:59.350Z,88.50
2019-05-05T05:24:18.179Z,88.12
2019-05-05T05:26:45.593Z,88.74
2019-05-05T05:29:14.912Z,88.39
2019-05-05T05:31:44.136Z,89.22
2019-05-05T05:34:11.453Z,88.76
2019-05-05T05:36:38.775Z,89.18
2019-05-05T05:39:13.954Z,89.15
2019-05-05T05:41:43.554Z,88.70
2019-05-05T05:44:37.021Z,88.32
2019-05-05T05:47:33.841Z,86.21
2019-05-05T05:50:11.002Z,86.68
2019-05-05T05:52:38.418Z,87.27
2019-05-05T05:55:05.752Z,86.41
2019-05-05T05:57:34.610Z,84.82
2019-05-05T06:00:04.092Z,86.37
2019-05-05T06:02:33.448Z,88.40
2019-05-05T06:05:00.925Z,89.79
2019-05-05T06:07:28.363Z,88.87
2019-05-05T06:09:55.707Z,86.26
2019-05-05T06:12:24.550Z,86.94
2019-05-05T06:14:53.685Z,88.71
2019-05-05T06:17:21.204Z,88.36
2019-05-05T06:19:48.534Z,87.50
2019-05-05T06:22:28.169Z,87.74
2019-05-05T06:24:45.134Z,88.03
2019-05-05T06:27:14.264Z,88.81
2019-05-05T06:29:43.884Z,89.26
2019-05-05T06:32:11.153Z,89.58
2019-05-05T06:34:38.453Z,89.43
2019-05-05T06:37:05.847Z,88.92
2019-05-05T06:39:33.610Z,88.78
2019-05-05T06:42:20.763Z,88.58
2019-05-05T06:44:58.935Z,89.22
2019-05-05T06:47:29.422Z,90.01
2019-05-05T06:49:56.751Z,89.39
2019-05-05T06:52:24.866Z,89.60
2019-05-05T06:54:54.172Z,89.94
2019-05-05T06:57:21.655Z,89.74
2019-05-05T06:59:49.047Z,89.62
2019-05-05T07:02:16.452Z,89.91
2019-05-05T07:04:44.743Z,89.52
2019-05-05T07:07:14.353Z,90.19
2019-05-05T07:09:41.394Z,89.63
2019-05-05T07:12:08.778Z,88.97
2019-05-05T07:14:36.117Z,89.29
2019-05-05T07:17:05.094Z,88.75
2019-05-05T07:19:34.493Z,88.57
2019-05-05T07:22:04.070Z,88.77
2019-05-05T07:24:31.471Z,89.13
2019-05-05T07:26:58.874Z,88.68
2019-05-05T07:29:26.303Z,88.38
2019-05-05T07:31:54.568Z,88.13
2019-05-05T07:34:24.224Z,89.41
2019-05-05T07:36:51.832Z,87.82
2019-05-05T07:39:19.213Z,88.41
2019-05-05T07:41:46.633Z,86.56
2019-05-05T07:44:25.801Z,87.92
2019-05-05T07:46:43.945Z,88.59
2019-05-05T07:49:13.714Z,88.60
2019-05-05T07:51:40.835Z,87.38
2019-05-05T07:54:08.263Z,89.40
2019-05-05T07:56:35.633Z,89.83
2019-05-05T07:59:03.838Z,88.71
2019-05-05T08:01:33.685Z,88.52
2019-05-05T08:04:00.923Z,89.33
2019-05-05T08:06:28.335Z,89.78
2019-05-05T08:08:55.764Z,87.93
2019-05-05T08:11:23.870Z,87.54
2019-05-05T08:13:51.555Z,89.21
2019-05-05T08:16:33.683Z,88.99
2019-05-05T08:19:24.227Z,89.00
2019-05-05T08:21:51.833Z,89.36
2019-05-05T08:24:26.648Z,89.75
2019-05-05T08:27:16.397Z,89.31
2019-05-05T08:29:49.267Z,89.36
2019-05-05T08:32:25.613Z,89.91
2019-05-05T08:34:59.742Z,90.39
2019-05-05T08:37:23.673Z,89.78
2019-05-05T08:39:51.578Z,89.01
2019-05-05T08:42:19.057Z,88.67
2019-05-05T08:44:46.434Z,89.24
2019-05-05T08:47:14.024Z,88.73
2019-05-05T08:49:41.444Z,89.48
2019-05-05T08:52:08.814Z,89.67
2019-05-05T08:54:36.221Z,89.66
2019-05-05T08:57:04.338Z,89.40
2019-05-05T08:59:33.722Z,89.33
2019-05-05T09:02:01.231Z,88.42
2019-05-05T09:04:28.573Z,87.24
2019-05-05T09:06:55.997Z,85.05
2019-05-05T09:09:24.146Z,85.92
2019-05-05T09:11:54.063Z,85.46
2019-05-05T09:14:21.096Z,84.85
2019-05-05T09:16:48.536Z,83.88
2019-05-05T09:19:18.868Z,84.66
2019-05-05T09:21:46.234Z,84.76
2019-05-05T09:24:33.973Z,86.46
2019-05-05T09:27:09.158Z,86.19
2019-05-05T09:29:39.332Z,87.19
2019-05-05T09:32:07.083Z,87.34
2019-05-05T09:34:34.446Z,88.34
2019-05-05T09:37:04.823Z,88.98
2019-05-05T09:39:34.576Z,89.18
2019-05-05T09:42:03.961Z,89.37
2019-05-05T09:44:31.341Z,88.98
2019-05-05T09:46:58.767Z,88.98
2019-05-05T09:49:26.145Z,89.40
2019-05-05T09:51:54.507Z,87.37
2019-05-05T09:54:24.157Z,88.40
2019-05-05T09:56:53.679Z,89.02
2019-05-05T09:59:20.771Z,89.09
2019-05-05T10:01:48.165Z,89.35
2019-05-05T10:04:15.669Z,89.12
2019-05-05T10:06:47.641Z,88.83
2019-05-05T10:09:13.775Z,88.52
2019-05-05T10:11:41.398Z,89.39
2019-05-05T10:14:08.956Z,89.24
2019-05-05T10:16:36.611Z,89.18
2019-05-05T10:19:04.590Z,88.47
2019-05-05T10:21:33.924Z,89.03
2019-05-05T10:24:04.702Z,89.28
2019-05-05T10:26:32.038Z,89.84
2019-05-05T10:29:01.214Z,90.21
2019-05-05T10:31:28.784Z,90.60
2019-05-05T10:34:00.073Z,91.17
2019-05-05T10:36:27.642Z,91.28
2019-05-05T10:39:00.031Z,90.73
2019-05-05T10:41:28.923Z,90.84
2019-05-05T10:43:56.479Z,90.97
2019-05-05T10:46:23.902Z,91.09
2019-05-05T10:48:51.241Z,91.10
2019-05-05T10:51:20.822Z,90.88
2019-05-05T10:53:48.199Z,90.95
2019-05-05T10:56:15.539Z,90.54
2019-05-05T10:58:44.128Z,90.43
2019-05-05T11:01:11.994Z,89.99
2019-05-05T11:03:39.461Z,89.73
2019-05-05T11:06:06.891Z,90.10
2019-05-05T11:08:35.097Z,88.40
2019-05-05T11:11:04.214Z,88.62
2019-05-05T11:13:31.874Z,88.98
2019-05-05T11:15:59.310Z,88.11
2019-05-05T11:18:26.795Z,88.58
2019-05-05T11:20:54.817Z,88.03
2019-05-05T11:23:22.369Z,88.05
2019-05-05T11:25:50.011Z,87.85
2019-05-05T11:28:17.389Z,87.91
2019-05-05T11:30:45.688Z,87.61
2019-05-05T11:33:34.489Z,87.86
2019-05-05T11:36:16.707Z,88.06
2019-05-05T11:38:44.673Z,88.28
2019-05-05T11:41:14.414Z,88.35
2019-05-05T11:43:41.800Z,88.55
2019-05-05T11:46:09.355Z,88.91
2019-05-05T11:48:36.772Z,88.20
2019-05-05T11:51:04.613Z,90.17
2019-05-05T11:53:33.998Z,90.12
2019-05-05T11:56:01.519Z,89.73
2019-05-05T11:58:28.921Z,89.44
2019-05-05T12:00:56.384Z,89.20
2019-05-05T12:03:23.769Z,89.45
2019-05-05T12:05:51.300Z,88.44
2019-05-05T12:08:18.749Z,89.01
2019-05-05T12:10:57.546Z,88.91
2019-05-05T12:13:25.106Z,89.99
2019-05-05T12:16:18.117Z,88.26
2019-05-05T12:18:45.592Z,86.04
2019-05-05T12:21:14.246Z,86.55
2019-05-05T12:23:41.657Z,86.55
2019-05-05T12:26:24.567Z,86.86
2019-05-05T12:28:57.898Z,85.41
2019-05-05T12:31:27.077Z,86.34
2019-05-05T12:33:55.044Z,87.08
2019-05-05T12:36:23.665Z,87.01
2019-05-05T12:38:51.419Z,86.57
2019-05-05T12:41:20.941Z,86.39
2019-05-05T12:43:48.207Z,86.98
2019-05-05T12:46:34.009Z,87.50
2019-05-05T12:49:04.954Z,88.27
2019-05-05T12:51:34.271Z,86.25
2019-05-05T12:54:01.902Z,85.71
2019-05-05T12:56:30.230Z,84.23
2019-05-05T12:58:57.651Z,83.95
2019-05-05T13:01:33.571Z,82.98
2019-05-05T13:04:04.001Z,85.08
2019-05-05T13:06:34.566Z,82.13
2019-05-05T13:09:02.389Z,82.03
2019-05-05T13:11:29.840Z,82.02
2019-05-05T13:13:57.299Z,80.56
2019-05-05T13:16:25.156Z,80.04
2019-05-05T13:18:53.873Z,83.51
2019-05-05T13:21:47.882Z,82.23
2019-05-05T13:24:28.671Z,80.72
2019-05-05T13:27:08.733Z,81.93
2019-05-05T13:29:33.873Z,82.98
2019-05-05T13:32:03.512Z,80.51
2019-05-05T13:34:33.482Z,84.42
2019-05-05T13:37:00.974Z,82.52
2019-05-05T13:39:28.399Z,80.79
2019-05-05T13:41:55.889Z,82.26
2019-05-05T13:44:48.923Z,83.79
2019-05-05T13:47:17.583Z,84.78
2019-05-05T13:49:45.022Z,84.55
2019-05-05T13:52:13.895Z,85.05
2019-05-05T13:54:43.759Z,84.08
2019-05-05T13:57:11.464Z,83.14
2019-05-05T13:59:38.980Z,83.70
2019-05-05T14:02:06.485Z,82.41
2019-05-05T14:04:35.142Z,81.73
2019-05-05T14:07:04.050Z,82.00
2019-05-05T14:09:31.741Z,83.53
2019-05-05T14:11:59.461Z,83.77
2019-05-05T14:14:26.925Z,79.51
2019-05-05T14:16:54.645Z,78.85
2019-05-05T14:19:22.119Z,79.92
2019-05-05T14:21:49.598Z,81.29
2019-05-05T14:24:24.734Z,80.80
2019-05-05T14:26:54.066Z,80.16
2019-05-05T14:30:00.693Z,81.27
2019-05-05T14:32:31.683Z,78.24
2019-05-05T14:35:06.000Z,80.91
2019-05-05T14:37:40.162Z,80.44
2019-05-05T14:40:08.199Z,78.74
2019-05-05T14:42:36.395Z,77.59
2019-05-05T14:45:05.327Z,78.41
2019-05-05T14:47:33.612Z,77.67
2019-05-05T14:50:01.685Z,79.63
2019-05-05T14:52:29.244Z,78.09
2019-05-05T14:54:57.523Z,75.66
2019-05-05T14:57:27.394Z,77.52
2019-05-05T14:59:55.334Z,76.87
2019-05-05T15:02:24.256Z,80.24
2019-05-05T15:04:53.966Z,82.99
2019-05-05T15:07:44.342Z,83.21
2019-05-05T15:10:30.184Z,82.22
2019-05-05T15:13:04.257Z,81.69
2019-05-05T15:15:31.923Z,81.29
2019-05-05T15:17:59.558Z,83.08
2019-05-05T15:20:27.133Z,84.05
2019-05-05T15:22:59.291Z,84.67
2019-05-05T15:25:26.766Z,84.51
2019-05-05T15:27:54.734Z,84.25
2019-05-05T15:30:24.950Z,84.87
2019-05-05T15:32:54.009Z,85.41
2019-05-05T15:35:21.797Z,86.49
2019-05-05T15:37:49.657Z,85.64
2019-05-05T15:40:17.536Z,85.19
2019-05-05T15:42:47.406Z,85.57
2019-05-05T15:45:15.379Z,86.35
2019-05-05T15:47:43.532Z,87.19
2019-05-05T15:50:13.636Z,86.41
2019-05-05T15:52:41.501Z,88.39
2019-05-05T15:55:09.319Z,88.21
2019-05-05T15:57:38.633Z,88.08
2019-05-05T16:00:07.391Z,88.17
2019-05-05T16:02:36.070Z,88.55
2019-05-05T16:05:04.601Z,88.83
2019-05-05T16:07:33.402Z,87.83
2019-05-05T16:10:03.976Z,87.64
2019-05-05T16:12:36.419Z,87.26
2019-05-05T16:15:26.680Z,87.84
2019-05-05T16:18:13.717Z,87.92
2019-05-05T16:20:46.481Z,88.62
2019-05-05T16:23:17.978Z,88.21
2019-05-05T16:25:47.416Z,88.85
2019-05-05T16:28:17.722Z,89.15
2019-05-05T16:30:45.482Z,88.77
2019-05-05T16:33:13.842Z,88.98
2019-05-05T16:35:43.720Z,89.69
2019-05-05T16:38:14.944Z,89.49
2019-05-05T16:40:44.429Z,89.51
2019-05-05T16:43:14.128Z,89.86
2019-05-05T16:45:44.425Z,89.85
2019-05-05T16:48:12.417Z,89.39
2019-05-05T16:50:44.084Z,89.92
2019-05-05T16:53:34.293Z,89.35
2019-05-05T16:56:02.104Z,89.09
2019-05-05T16:58:29.841Z,89.16
2019-05-05T17:01:15.844Z,89.26
2019-05-05T17:03:45.822Z,90.64
2019-05-05T17:06:16.525Z,90.11
2019-05-05T17:08:45.770Z,89.33
2019-05-05T17:11:15.941Z,89.96
2019-05-05T17:14:06.345Z,90.39
2019-05-05T17:16:44.760Z,90.03
2019-05-05T17:19:45.423Z,88.95
2019-05-05T17:22:38.708Z,88.39
2019-05-05T17:25:08.536Z,86.71
2019-05-05T17:27:47.653Z,87.18
2019-05-05T17:30:12.094Z,85.73
2019-05-05T17:32:40.228Z,88.30
2019-05-05T17:35:08.295Z,87.56
2019-05-05T17:37:41.236Z,87.74
2019-05-05T17:40:21.699Z,88.25
2019-05-05T17:43:22.548Z,87.18
2019-05-05T17:45:57.858Z,85.15
2019-05-05T17:48:46.663Z,85.28
2019-05-05T17:51:23.434Z,86.21
2019-05-05T17:54:12.015Z,85.98
2019-05-05T17:56:40.055Z,86.20
2019-05-05T17:59:08.348Z,86.90
2019-05-05T18:01:36.706Z,84.64
2019-05-05T18:04:05.113Z,84.25
2019-05-05T18:06:41.245Z,84.42
2019-05-05T18:09:14.067Z,82.11
2019-05-05T18:12:06.532Z,85.05
2019-05-05T18:14:36.219Z,83.34
2019-05-05T18:17:04.353Z,83.55
2019-05-05T18:19:34.027Z,85.66
2019-05-05T18:22:03.286Z,85.81
2019-05-05T18:24:31.209Z,86.97
2019-05-05T18:26:59.139Z,87.43
2019-05-05T18:29:27.189Z,88.39
2019-05-05T18:31:58.895Z,88.69
2019-05-05T18:34:26.801Z,88.37
2019-05-05T18:36:55.317Z,87.33
2019-05-05T18:39:24.793Z,88.09
2019-05-05T18:42:10.581Z,88.59
2019-05-05T18:44:44.251Z,89.90
2019-05-05T18:47:17.923Z,89.72
2019-05-05T18:49:46.138Z,89.17
2019-05-05T18:52:14.161Z,88.66
2019-05-05T18:54:43.649Z,88.63
2019-05-05T18:57:13.323Z,88.83
2019-05-05T18:59:41.667Z,87.67
2019-05-05T19:02:47.997Z,87.72
2019-05-05T19:05:31.910Z,87.69
2019-05-05T19:08:21.907Z,88.66
2019-05-05T19:10:49.959Z,87.61
2019-05-05T19:13:18.858Z,89.06
2019-05-05T19:15:47.135Z,89.22
2019-05-05T19:18:14.983Z,89.43
2019-05-05T19:20:54.207Z,89.38
2019-05-05T19:23:29.164Z,88.42
2019-05-05T19:25:57.543Z,89.30
2019-05-05T19:28:25.790Z,88.99
2019-05-05T19:30:54.921Z,88.93
2019-05-05T19:33:24.698Z,89.45
2019-05-05T19:35:53.959Z,89.55
2019-05-05T19:38:23.709Z,89.08
2019-05-05T19:40:55.887Z,88.14
2019-05-05T19:43:26.014Z,88.53
2019-05-05T19:45:55.212Z,87.72
2019-05-05T19:48:24.472Z,86.99
2019-05-05T19:51:05.301Z,86.35
2019-05-05T19:53:35.922Z,86.79
2019-05-05T19:56:04.964Z,86.29
2019-05-05T19:58:34.095Z,86.52
2019-05-05T20:01:05.797Z,87.18
2019-05-05T20:03:35.082Z,88.51
2019-05-05T20:06:06.122Z,88.00
2019-05-05T20:08:40.798Z,87.47
2019-05-05T20:11:10.973Z,88.19
2019-05-05T20:13:40.762Z,87.64
2019-05-05T20:16:25.180Z,86.75
2019-05-05T20:18:54.648Z,87.10
2019-05-05T20:21:23.668Z,87.36
2019-05-05T20:23:51.590Z,86.74
2019-05-05T20:26:19.573Z,87.33
2019-05-05T20:28:47.903Z,87.33
2019-05-05T20:31:15.944Z,87.55
2019-05-05T20:33:57.475Z,87.52
2019-05-05T20:36:26.265Z,88.53
2019-05-05T20:38:54.924Z,87.52
2019-05-05T20:41:24.902Z,88.36
2019-05-05T20:43:54.300Z,87.09
2019-05-05T20:46:23.717Z,87.53
2019-05-05T20:48:54.530Z,86.48
2019-05-05T20:51:24.292Z,84.51
2019-05-05T20:53:54.255Z,86.71
2019-05-05T20:56:21.913Z,84.42
2019-05-05T20:58:49.331Z,84.91
2019-05-05T21:01:16.687Z,83.85
2019-05-05T21:03:44.086Z,83.93
2019-05-05T21:06:13.659Z,80.91
2019-05-05T21:08:40.842Z,84.80
2019-05-05T21:11:08.289Z,82.50
2019-05-05T21:13:35.723Z,83.19
2019-05-05T21:16:03.434Z,83.31
2019-05-05T21:18:30.903Z,83.33
2019-05-05T21:21:00.397Z,81.27
2019-05-05T21:23:56.447Z,81.53
2019-05-05T21:27:01.321Z,83.58
2019-05-05T21:29:39.517Z,82.62
2019-05-05T21:31:58.334Z,82.48
2019-05-05T21:34:25.840Z,84.99
2019-05-05T21:36:53.998Z,86.92
2019-05-05T21:39:21.658Z,86.73
2019-05-05T21:41:48.983Z,86.31
2019-05-05T21:44:16.414Z,86.24
2019-05-05T21:46:43.888Z,85.89
2019-05-05T21:49:13.466Z,86.96
2019-05-05T21:52:05.845Z,87.65
2019-05-05T21:54:40.506Z,86.87
2019-05-05T21:57:34.613Z,87.04
2019-05-05T22:00:04.480Z,87.02
2019-05-05T22:02:32.075Z,88.41
2019-05-05T22:04:59.457Z,88.87
2019-05-05T22:07:26.776Z,88.49
2019-05-05T22:09:54.619Z,89.00
2019-05-05T22:12:24.195Z,89.30
2019-05-05T22:14:51.497Z,89.96
2019-05-05T22:17:18.838Z,89.82
2019-05-05T22:20:00.865Z,89.91
2019-05-05T22:22:30.726Z,90.52
2019-05-05T22:24:58.074Z,89.69
2019-05-05T22:27:25.495Z,90.00
2019-05-05T22:29:55.352Z,87.10
2019-05-05T22:32:22.194Z,88.14
2019-05-05T22:34:49.555Z,88.43
2019-05-05T22:37:16.909Z,88.10
2019-05-05T22:39:44.615Z,88.33
2019-05-05T22:42:13.964Z,88.35
2019-05-05T22:44:41.400Z,88.32
2019-05-05T22:47:08.771Z,86.26
2019-05-05T22:49:36.135Z,87.11
2019-05-05T22:52:03.878Z,87.21
2019-05-05T22:54:33.493Z,88.25
2019-05-05T22:57:00.595Z,88.18
2019-05-05T22:59:27.934Z,88.88
2019-05-05T23:01:55.257Z,88.64
2019-05-05T23:04:35.080Z,87.77
2019-05-05T23:07:14.425Z,88.24
2019-05-05T23:09:44.225Z,88.55
2019-05-05T23:12:11.277Z,89.06
2019-05-05T23:14:40.512Z,88.36
2019-05-05T23:17:26.452Z,89.13
2019-05-05T23:20:16.271Z,89.69
2019-05-05T23:22:49.727Z,89.21
2019-05-05T23:25:28.495Z,89.52
2019-05-05T23:27:55.851Z,89.10
2019-05-05T23:30:28.000Z,89.40
2019-05-05T23:32:54.859Z,88.91
2019-05-05T23:35:23.901Z,88.20
2019-05-05T23:37:51.459Z,87.52
2019-05-05T23:40:24.616Z,88.31
2019-05-05T23:42:54.020Z,88.72
2019-05-05T23:45:21.897Z,89.10
2019-05-05T23:47:49.221Z,89.81
2019-05-05T23:50:16.779Z,90.08
2019-05-05T23:52:44.425Z,88.79
2019-05-05T23:55:11.897Z,88.70
2019-05-05T23:57:39.273Z,89.83
